710  
UXUS97 KREV 241441  
SRGREV  
 
SOARING FORECAST  
NATIONAL WEATHER SERVICE - RENO NV  
700 AM PST WED FEB 24 2021  
 
THIS SOARING FORECAST IS FOR THE EASTERN SIERRA AND WESTERN NEVADA  
WITH SPECIFIC INDICES FOR THE GREATER RENO AREA.  
 
THIS FORECAST IS PREPARED DAILY BY 700 AM AND IS NOT UPDATED.  
 
FOR CURRENT FLIGHT CONDITIONS...FORECASTS...AND ADVISORIES...ACCESS  
YOUR LOCAL BRIEFING OUTLET OR FLIGHT SERVICE STATION.  
 
*******************************************************************  
FORECASTED LOCAL INDICES FOR RENO: TODAY YESTERDAY  
FORECASTED MAX TEMP AT RENO (DEG F)..... 45 60  
FORECASTED TRIGGER TEMPERATURE (DEG F).. 49 56  
EXCEEDED YESTERDAY BY 1455 PM PST  
FORECASTED MAXIMUM ALTITUDE (FT MSL).... 6600 9400  
FORECASTED SOARING INDEX (FPM).......... 138 342  
FORECASTED K-INDEX.........VALID 18Z.... -32 -21  
FORECASTED K-INDEX.........VALID 00Z.... 0 -13  
FORECASTED LIFTED INDEX....VALID 18Z.... 11 10  
FORECASTED LIFTED INDEX....VALID 00Z.... 16 7  
 
AFTERNOON WINDS ALOFT FORECAST  
MSL (FT) WIND/TEMP  
9000 0417/-11  
10000 0226/-10  
12000 0145/-10  
14000 2250/-12  
16000 2956/-15  
18000 3673/-18  
24000 3688/-28  
30000 3695/-46  
34000 5100/-55  
39000 3462/-62  
 
SLIDE MOUNTAIN DATA:  
DATE TIME TEMP DEWPT RH WIND (MPH)  
(F) (F) | DIR SPEED GUST  
2021-02-24 05:50 24 -11 8 | 333 14 22  
2021-02-24 05:30 24 -10 9 | 347 13 20  
2021-02-24 05:20 23 -6 13 | 348 16 23  
2021-02-24 04:50 24 -5 13 | 358 15 21  
 
SIERRA CREST 8700 FT DATA:  
DATE TIME TEMP RH WIND  
DIR SPEED GUST  
2021-02-24 0600 26 15 050 33 41  
2021-02-24 0545 24 22 055 27 34  
2021-02-24 0530 24 24 052 23 31  
2021-02-24 0515 25 21 057 28 38  
 
RENO TAF FORECAST:  
KRNO 241120Z 2412/2512 VRB05KT P6SM SKC  
FM241500 34006KT P6SM FEW200  
FM241800 02010G18KT P6SM FEW200  
FM250300 VRB03KT P6SM FEW200  
 
MINDEN TAF FORECAST:  
KMEV 241120Z 2412/2512 VRB05KT P6SM SKC  
FM241500 35008KT P6SM FEW200  
FM241800 03012G25KT P6SM FEW200  
FM250300 VRB04KT P6SM FEW250  
 
OUTLOOK FOR THE RENO-CARSON CITY-MINDEN AREA:   
THURSDAY
 
SUNNY IN THE MORNING THEN BECOMING PARTLY CLOUDY.  
HIGHS 49 TO 54. LIGHT WINDS BECOMING SOUTH AROUND 10 MPH IN THE  
AFTERNOON.  
 
SUNRISE AND SUNSET  
FEBRUARY 24 2021......SUNRISE 639 AM PST SUNSET 546 PM PST  
FEBRUARY 25 2021......SUNRISE 637 AM PST SUNSET 547 PM PST  
 
CLICK HERE TO GO TO PREVIOUS BULLETINS.

The Nexlab NV Page
The Nexlab CA Page Main Text Page